sensor_id;sensor_type;location;lat;lon;timestamp;P1;durP1;ratioP1;P2;durP2;ratioP2
47335;SDS011;33068;51.990;5.926;2022-08-19T00:01:16;4.53;;;3.88;;
47335;SDS011;33068;51.990;5.926;2022-08-19T00:03:43;5.35;;;4.28;;
47335;SDS011;33068;51.990;5.926;2022-08-19T00:06:11;5.05;;;4.10;;
47335;SDS011;33068;51.990;5.926;2022-08-19T00:08:38;5.40;;;4.18;;
47335;SDS011;33068;51.990;5.926;2022-08-19T00:11:05;10.02;;;4.93;;
47335;SDS011;33068;51.990;5.926;2022-08-19T00:13:35;5.32;;;4.07;;
47335;SDS011;33068;51.990;5.926;2022-08-19T00:16:03;6.85;;;4.82;;
47335;SDS011;33068;51.990;5.926;2022-08-19T00:18:31;9.32;;;4.95;;
47335;SDS011;33068;51.990;5.926;2022-08-19T00:20:58;6.88;;;5.30;;
47335;SDS011;33068;51.990;5.926;2022-08-19T00:23:25;5.35;;;4.28;;
47335;SDS011;33068;51.990;5.926;2022-08-19T00:25:53;6.85;;;4.38;;
47335;SDS011;33068;51.990;5.926;2022-08-19T00:28:20;7.70;;;4.88;;
47335;SDS011;33068;51.990;5.926;2022-08-19T00:30:49;6.30;;;4.80;;
47335;SDS011;33068;51.990;5.926;2022-08-19T00:33:18;5.85;;;4.78;;
47335;SDS011;33068;51.990;5.926;2022-08-19T00:35:46;6.63;;;5.20;;
47335;SDS011;33068;51.990;5.926;2022-08-19T00:38:13;8.68;;;5.90;;
47335;SDS011;33068;51.990;5.926;2022-08-19T00:40:42;6.68;;;5.60;;
47335;SDS011;33068;51.990;5.926;2022-08-19T00:43:11;7.43;;;5.32;;
47335;SDS011;33068;51.990;5.926;2022-08-19T00:45:40;6.88;;;5.05;;
47335;SDS011;33068;51.990;5.926;2022-08-19T00:48:10;7.70;;;5.97;;
47335;SDS011;33068;51.990;5.926;2022-08-19T00:50:38;6.35;;;5.60;;
47335;SDS011;33068;51.990;5.926;2022-08-19T00:53:08;7.03;;;6.32;;
47335;SDS011;33068;51.990;5.926;2022-08-19T00:55:40;8.10;;;5.85;;
47335;SDS011;33068;51.990;5.926;2022-08-19T00:58:15;7.32;;;6.10;;
47335;SDS011;33068;51.990;5.926;2022-08-19T01:00:44;10.15;;;6.18;;
47335;SDS011;33068;51.990;5.926;2022-08-19T01:03:13;11.77;;;7.50;;
47335;SDS011;33068;51.990;5.926;2022-08-19T01:05:43;8.18;;;6.20;;
47335;SDS011;33068;51.990;5.926;2022-08-19T01:08:12;8.20;;;6.30;;
47335;SDS011;33068;51.990;5.926;2022-08-19T01:10:41;8.35;;;6.18;;
47335;SDS011;33068;51.990;5.926;2022-08-19T01:13:10;7.78;;;6.22;;
47335;SDS011;33068;51.990;5.926;2022-08-19T01:15:40;10.15;;;6.80;;
47335;SDS011;33068;51.990;5.926;2022-08-19T01:18:12;8.73;;;6.10;;
47335;SDS011;33068;51.990;5.926;2022-08-19T01:20:43;9.23;;;6.57;;
47335;SDS011;33068;51.990;5.926;2022-08-19T01:23:12;7.50;;;6.78;;
47335;SDS011;33068;51.990;5.926;2022-08-19T01:25:41;8.27;;;6.07;;
47335;SDS011;33068;51.990;5.926;2022-08-19T01:28:14;8.40;;;6.55;;
47335;SDS011;33068;51.990;5.926;2022-08-19T01:30:43;7.95;;;6.38;;
47335;SDS011;33068;51.990;5.926;2022-08-19T01:33:11;9.00;;;7.18;;
47335;SDS011;33068;51.990;5.926;2022-08-19T01:35:39;10.18;;;7.50;;
47335;SDS011;33068;51.990;5.926;2022-08-19T01:38:07;9.75;;;7.25;;
47335;SDS011;33068;51.990;5.926;2022-08-19T01:40:38;13.25;;;7.57;;
47335;SDS011;33068;51.990;5.926;2022-08-19T01:43:07;10.75;;;6.78;;
47335;SDS011;33068;51.990;5.926;2022-08-19T01:45:34;9.10;;;6.82;;
47335;SDS011;33068;51.990;5.926;2022-08-19T01:48:03;10.02;;;7.15;;
47335;SDS011;33068;51.990;5.926;2022-08-19T01:50:30;11.48;;;7.28;;
47335;SDS011;33068;51.990;5.926;2022-08-19T01:52:59;8.73;;;7.15;;
47335;SDS011;33068;51.990;5.926;2022-08-19T01:55:27;9.38;;;6.57;;
47335;SDS011;33068;51.990;5.926;2022-08-19T01:57:55;10.68;;;7.40;;
47335;SDS011;33068;51.990;5.926;2022-08-19T02:00:26;13.05;;;7.43;;
47335;SDS011;33068;51.990;5.926;2022-08-19T02:02:56;7.68;;;6.72;;
47335;SDS011;33068;51.990;5.926;2022-08-19T02:05:23;11.65;;;7.95;;
47335;SDS011;33068;51.990;5.926;2022-08-19T02:07:50;10.65;;;7.70;;
47335;SDS011;33068;51.990;5.926;2022-08-19T02:10:18;10.93;;;7.65;;
47335;SDS011;33068;51.990;5.926;2022-08-19T02:12:46;10.05;;;7.53;;
47335;SDS011;33068;51.990;5.926;2022-08-19T02:17:44;8.55;;;6.70;;
47335;SDS011;33068;51.990;5.926;2022-08-19T02:20:11;8.68;;;6.75;;
47335;SDS011;33068;51.990;5.926;2022-08-19T02:22:39;11.05;;;8.20;;
47335;SDS011;33068;51.990;5.926;2022-08-19T02:25:08;10.43;;;7.18;;
47335;SDS011;33068;51.990;5.926;2022-08-19T02:27:36;10.68;;;7.55;;
47335;SDS011;33068;51.990;5.926;2022-08-19T02:30:04;12.35;;;8.18;;
47335;SDS011;33068;51.990;5.926;2022-08-19T02:32:34;12.38;;;8.25;;
47335;SDS011;33068;51.990;5.926;2022-08-19T02:35:02;13.50;;;8.57;;
47335;SDS011;33068;51.990;5.926;2022-08-19T02:37:30;12.15;;;8.10;;
47335;SDS011;33068;51.990;5.926;2022-08-19T02:40:15;7.85;;;6.63;;
47335;SDS011;33068;51.990;5.926;2022-08-19T02:42:42;10.88;;;7.20;;
47335;SDS011;33068;51.990;5.926;2022-08-19T02:45:11;10.98;;;6.97;;
47335;SDS011;33068;51.990;5.926;2022-08-19T02:47:40;11.23;;;7.25;;
47335;SDS011;33068;51.990;5.926;2022-08-19T02:50:07;13.30;;;7.45;;
47335;SDS011;33068;51.990;5.926;2022-08-19T02:52:34;9.80;;;7.00;;
47335;SDS011;33068;51.990;5.926;2022-08-19T02:55:02;12.77;;;8.30;;
47335;SDS011;33068;51.990;5.926;2022-08-19T02:57:30;10.98;;;8.35;;
47335;SDS011;33068;51.990;5.926;2022-08-19T03:00:03;10.43;;;6.65;;
47335;SDS011;33068;51.990;5.926;2022-08-19T03:02:32;10.50;;;7.93;;
47335;SDS011;33068;51.990;5.926;2022-08-19T03:05:00;10.75;;;7.20;;
47335;SDS011;33068;51.990;5.926;2022-08-19T03:10:11;11.57;;;6.82;;
47335;SDS011;33068;51.990;5.926;2022-08-19T03:12:39;9.02;;;7.90;;
47335;SDS011;33068;51.990;5.926;2022-08-19T03:15:07;12.95;;;7.63;;
47335;SDS011;33068;51.990;5.926;2022-08-19T03:17:35;10.82;;;7.70;;
47335;SDS011;33068;51.990;5.926;2022-08-19T03:20:04;10.52;;;7.38;;
47335;SDS011;33068;51.990;5.926;2022-08-19T03:22:35;11.30;;;7.85;;
47335;SDS011;33068;51.990;5.926;2022-08-19T03:25:02;11.23;;;8.23;;
47335;SDS011;33068;51.990;5.926;2022-08-19T03:27:30;11.88;;;7.85;;
47335;SDS011;33068;51.990;5.926;2022-08-19T03:29:57;9.15;;;7.60;;
47335;SDS011;33068;51.990;5.926;2022-08-19T03:32:24;10.07;;;7.43;;
47335;SDS011;33068;51.990;5.926;2022-08-19T03:34:51;12.40;;;7.07;;
47335;SDS011;33068;51.990;5.926;2022-08-19T03:37:20;13.02;;;8.55;;
47335;SDS011;33068;51.990;5.926;2022-08-19T03:39:47;14.77;;;7.95;;
47335;SDS011;33068;51.990;5.926;2022-08-19T03:42:14;9.75;;;7.57;;
47335;SDS011;33068;51.990;5.926;2022-08-19T03:44:42;12.43;;;8.27;;
47335;SDS011;33068;51.990;5.926;2022-08-19T03:47:13;13.15;;;7.72;;
47335;SDS011;33068;51.990;5.926;2022-08-19T03:49:42;9.30;;;7.00;;
47335;SDS011;33068;51.990;5.926;2022-08-19T03:52:09;10.90;;;7.40;;
47335;SDS011;33068;51.990;5.926;2022-08-19T03:54:37;9.38;;;7.28;;
47335;SDS011;33068;51.990;5.926;2022-08-19T03:57:05;10.65;;;7.40;;
47335;SDS011;33068;51.990;5.926;2022-08-19T03:59:33;9.90;;;7.30;;
47335;SDS011;33068;51.990;5.926;2022-08-19T04:02:05;9.90;;;7.57;;
47335;SDS011;33068;51.990;5.926;2022-08-19T04:04:35;10.93;;;8.20;;
47335;SDS011;33068;51.990;5.926;2022-08-19T04:07:03;11.27;;;7.53;;
47335;SDS011;33068;51.990;5.926;2022-08-19T04:09:30;14.68;;;9.20;;
47335;SDS011;33068;51.990;5.926;2022-08-19T04:12:00;12.13;;;9.00;;
47335;SDS011;33068;51.990;5.926;2022-08-19T04:14:28;13.90;;;8.98;;
47335;SDS011;33068;51.990;5.926;2022-08-19T04:16:57;10.68;;;7.90;;
47335;SDS011;33068;51.990;5.926;2022-08-19T04:19:24;14.95;;;9.00;;
47335;SDS011;33068;51.990;5.926;2022-08-19T04:21:52;12.60;;;8.52;;
47335;SDS011;33068;51.990;5.926;2022-08-19T04:24:21;13.07;;;8.57;;
47335;SDS011;33068;51.990;5.926;2022-08-19T04:26:49;16.83;;;8.02;;
47335;SDS011;33068;51.990;5.926;2022-08-19T04:29:19;13.25;;;8.05;;
47335;SDS011;33068;51.990;5.926;2022-08-19T04:31:52;12.93;;;7.40;;
47335;SDS011;33068;51.990;5.926;2022-08-19T04:34:22;10.90;;;8.07;;
47335;SDS011;33068;51.990;5.926;2022-08-19T04:36:50;12.77;;;9.25;;
47335;SDS011;33068;51.990;5.926;2022-08-19T04:39:18;13.02;;;8.45;;
47335;SDS011;33068;51.990;5.926;2022-08-19T04:41:47;11.48;;;8.57;;
47335;SDS011;33068;51.990;5.926;2022-08-19T04:44:34;11.15;;;7.97;;
47335;SDS011;33068;51.990;5.926;2022-08-19T04:47:02;13.93;;;8.52;;
47335;SDS011;33068;51.990;5.926;2022-08-19T04:49:30;13.23;;;8.32;;
47335;SDS011;33068;51.990;5.926;2022-08-19T04:51:57;11.98;;;8.77;;
47335;SDS011;33068;51.990;5.926;2022-08-19T04:54:25;12.82;;;8.50;;
47335;SDS011;33068;51.990;5.926;2022-08-19T04:56:52;10.45;;;7.68;;
47335;SDS011;33068;51.990;5.926;2022-08-19T04:59:20;14.20;;;8.35;;
47335;SDS011;33068;51.990;5.926;2022-08-19T05:01:49;15.18;;;8.10;;
47335;SDS011;33068;51.990;5.926;2022-08-19T05:04:17;13.88;;;8.98;;
47335;SDS011;33068;51.990;5.926;2022-08-19T05:06:45;12.00;;;8.35;;
47335;SDS011;33068;51.990;5.926;2022-08-19T05:09:14;12.27;;;8.82;;
47335;SDS011;33068;51.990;5.926;2022-08-19T05:11:44;13.02;;;8.57;;
47335;SDS011;33068;51.990;5.926;2022-08-19T05:14:11;12.68;;;8.55;;
47335;SDS011;33068;51.990;5.926;2022-08-19T05:16:40;12.93;;;8.15;;
47335;SDS011;33068;51.990;5.926;2022-08-19T05:19:14;12.13;;;8.65;;
47335;SDS011;33068;51.990;5.926;2022-08-19T05:21:59;16.92;;;10.50;;
47335;SDS011;33068;51.990;5.926;2022-08-19T05:24:44;14.77;;;10.15;;
47335;SDS011;33068;51.990;5.926;2022-08-19T05:27:11;19.67;;;11.80;;
47335;SDS011;33068;51.990;5.926;2022-08-19T05:29:39;14.95;;;11.20;;
47335;SDS011;33068;51.990;5.926;2022-08-19T05:32:06;15.95;;;10.93;;
47335;SDS011;33068;51.990;5.926;2022-08-19T05:34:37;18.02;;;11.65;;
47335;SDS011;33068;51.990;5.926;2022-08-19T05:37:04;21.42;;;11.75;;
47335;SDS011;33068;51.990;5.926;2022-08-19T05:39:33;17.98;;;11.95;;
47335;SDS011;33068;51.990;5.926;2022-08-19T05:42:02;19.50;;;12.30;;
47335;SDS011;33068;51.990;5.926;2022-08-19T05:44:34;18.55;;;12.30;;
47335;SDS011;33068;51.990;5.926;2022-08-19T05:47:06;17.23;;;11.63;;
47335;SDS011;33068;51.990;5.926;2022-08-19T05:49:38;22.60;;;13.13;;
47335;SDS011;33068;51.990;5.926;2022-08-19T05:52:07;21.70;;;14.50;;
47335;SDS011;33068;51.990;5.926;2022-08-19T05:54:37;22.73;;;15.02;;
47335;SDS011;33068;51.990;5.926;2022-08-19T05:57:05;24.73;;;15.25;;
47335;SDS011;33068;51.990;5.926;2022-08-19T05:59:33;17.65;;;13.43;;
47335;SDS011;33068;51.990;5.926;2022-08-19T06:02:02;18.52;;;13.30;;
47335;SDS011;33068;51.990;5.926;2022-08-19T06:04:30;21.77;;;13.20;;
47335;SDS011;33068;51.990;5.926;2022-08-19T06:06:58;27.80;;;13.75;;
47335;SDS011;33068;51.990;5.926;2022-08-19T06:09:27;21.50;;;14.27;;
47335;SDS011;33068;51.990;5.926;2022-08-19T06:11:55;22.60;;;15.23;;
47335;SDS011;33068;51.990;5.926;2022-08-19T06:14:26;22.55;;;14.90;;
47335;SDS011;33068;51.990;5.926;2022-08-19T06:16:58;24.27;;;15.85;;
47335;SDS011;33068;51.990;5.926;2022-08-19T06:19:27;21.08;;;14.63;;
47335;SDS011;33068;51.990;5.926;2022-08-19T06:21:56;22.95;;;15.48;;
47335;SDS011;33068;51.990;5.926;2022-08-19T06:24:26;22.40;;;14.45;;
47335;SDS011;33068;51.990;5.926;2022-08-19T06:26:59;30.95;;;15.93;;
47335;SDS011;33068;51.990;5.926;2022-08-19T06:29:27;22.80;;;14.80;;
47335;SDS011;33068;51.990;5.926;2022-08-19T06:31:55;22.52;;;16.25;;
47335;SDS011;33068;51.990;5.926;2022-08-19T06:34:24;25.92;;;15.57;;
47335;SDS011;33068;51.990;5.926;2022-08-19T06:36:53;24.63;;;14.30;;
47335;SDS011;33068;51.990;5.926;2022-08-19T06:39:23;26.23;;;15.38;;
47335;SDS011;33068;51.990;5.926;2022-08-19T06:41:52;23.20;;;15.35;;
47335;SDS011;33068;51.990;5.926;2022-08-19T06:44:21;26.05;;;16.10;;
47335;SDS011;33068;51.990;5.926;2022-08-19T06:46:51;26.27;;;15.95;;
47335;SDS011;33068;51.990;5.926;2022-08-19T06:49:18;28.30;;;16.80;;
47335;SDS011;33068;51.990;5.926;2022-08-19T06:51:46;29.02;;;16.38;;
47335;SDS011;33068;51.990;5.926;2022-08-19T06:54:14;40.30;;;18.55;;
47335;SDS011;33068;51.990;5.926;2022-08-19T06:56:44;33.75;;;18.33;;
47335;SDS011;33068;51.990;5.926;2022-08-19T06:59:13;40.47;;;18.52;;
47335;SDS011;33068;51.990;5.926;2022-08-19T07:01:42;40.97;;;19.13;;
47335;SDS011;33068;51.990;5.926;2022-08-19T07:04:12;43.65;;;21.33;;
47335;SDS011;33068;51.990;5.926;2022-08-19T07:06:41;46.22;;;21.60;;
47335;SDS011;33068;51.990;5.926;2022-08-19T07:09:10;51.60;;;23.42;;
47335;SDS011;33068;51.990;5.926;2022-08-19T07:11:38;46.05;;;22.83;;
47335;SDS011;33068;51.990;5.926;2022-08-19T07:14:11;54.17;;;24.42;;
47335;SDS011;33068;51.990;5.926;2022-08-19T07:16:39;57.63;;;26.33;;
47335;SDS011;33068;51.990;5.926;2022-08-19T07:19:06;58.78;;;26.17;;
47335;SDS011;33068;51.990;5.926;2022-08-19T07:21:33;59.92;;;26.48;;
47335;SDS011;33068;51.990;5.926;2022-08-19T07:24:02;63.72;;;28.83;;
47335;SDS011;33068;51.990;5.926;2022-08-19T07:26:31;58.95;;;27.10;;
47335;SDS011;33068;51.990;5.926;2022-08-19T07:28:59;56.85;;;27.05;;
47335;SDS011;33068;51.990;5.926;2022-08-19T07:31:28;62.33;;;27.50;;
47335;SDS011;33068;51.990;5.926;2022-08-19T07:33:56;63.08;;;28.90;;
47335;SDS011;33068;51.990;5.926;2022-08-19T07:36:24;60.38;;;27.98;;
47335;SDS011;33068;51.990;5.926;2022-08-19T07:38:57;69.25;;;29.45;;
47335;SDS011;33068;51.990;5.926;2022-08-19T07:41:27;60.80;;;28.42;;
47335;SDS011;33068;51.990;5.926;2022-08-19T07:43:56;56.65;;;28.55;;
47335;SDS011;33068;51.990;5.926;2022-08-19T07:46:30;61.13;;;29.08;;
47335;SDS011;33068;51.990;5.926;2022-08-19T07:48:58;60.47;;;29.25;;
47335;SDS011;33068;51.990;5.926;2022-08-19T07:51:26;67.60;;;28.92;;
47335;SDS011;33068;51.990;5.926;2022-08-19T07:53:54;58.22;;;27.58;;
47335;SDS011;33068;51.990;5.926;2022-08-19T07:56:22;55.20;;;28.15;;
47335;SDS011;33068;51.990;5.926;2022-08-19T07:58:50;58.88;;;28.10;;
47335;SDS011;33068;51.990;5.926;2022-08-19T08:01:19;57.20;;;28.90;;
47335;SDS011;33068;51.990;5.926;2022-08-19T08:03:51;64.63;;;29.67;;
47335;SDS011;33068;51.990;5.926;2022-08-19T08:06:37;63.75;;;31.00;;
47335;SDS011;33068;51.990;5.926;2022-08-19T08:09:23;60.00;;;29.80;;
47335;SDS011;33068;51.990;5.926;2022-08-19T08:11:54;58.42;;;29.10;;
47335;SDS011;33068;51.990;5.926;2022-08-19T08:14:26;57.13;;;29.70;;
47335;SDS011;33068;51.990;5.926;2022-08-19T08:16:57;59.03;;;29.90;;
47335;SDS011;33068;51.990;5.926;2022-08-19T08:19:27;55.65;;;29.27;;
47335;SDS011;33068;51.990;5.926;2022-08-19T08:21:55;59.22;;;29.48;;
47335;SDS011;33068;51.990;5.926;2022-08-19T08:24:24;48.17;;;29.13;;
47335;SDS011;33068;51.990;5.926;2022-08-19T08:26:52;52.67;;;29.70;;
47335;SDS011;33068;51.990;5.926;2022-08-19T08:29:19;50.47;;;30.30;;
47335;SDS011;33068;51.990;5.926;2022-08-19T08:31:46;52.45;;;28.58;;
47335;SDS011;33068;51.990;5.926;2022-08-19T08:34:14;48.72;;;27.33;;
47335;SDS011;33068;51.990;5.926;2022-08-19T08:36:43;39.78;;;25.45;;
47335;SDS011;33068;51.990;5.926;2022-08-19T08:39:11;47.35;;;26.48;;
47335;SDS011;33068;51.990;5.926;2022-08-19T08:41:42;46.95;;;25.88;;
47335;SDS011;33068;51.990;5.926;2022-08-19T08:44:17;43.40;;;23.13;;
47335;SDS011;33068;51.990;5.926;2022-08-19T08:46:48;40.55;;;23.30;;
47335;SDS011;33068;51.990;5.926;2022-08-19T08:49:23;37.17;;;20.80;;
47335;SDS011;33068;51.990;5.926;2022-08-19T08:51:59;32.95;;;19.65;;
47335;SDS011;33068;51.990;5.926;2022-08-19T08:54:33;30.85;;;19.75;;
47335;SDS011;33068;51.990;5.926;2022-08-19T08:57:03;32.53;;;20.17;;
47335;SDS011;33068;51.990;5.926;2022-08-19T08:59:34;35.17;;;18.65;;
47335;SDS011;33068;51.990;5.926;2022-08-19T09:02:06;29.15;;;18.10;;
47335;SDS011;33068;51.990;5.926;2022-08-19T09:04:34;27.80;;;17.92;;
47335;SDS011;33068;51.990;5.926;2022-08-19T09:07:07;29.95;;;18.83;;
47335;SDS011;33068;51.990;5.926;2022-08-19T09:09:48;31.08;;;17.33;;
47335;SDS011;33068;51.990;5.926;2022-08-19T09:12:20;26.50;;;17.45;;
47335;SDS011;33068;51.990;5.926;2022-08-19T09:14:53;30.30;;;18.25;;
47335;SDS011;33068;51.990;5.926;2022-08-19T09:17:24;28.92;;;17.17;;
47335;SDS011;33068;51.990;5.926;2022-08-19T09:19:57;30.30;;;17.80;;
47335;SDS011;33068;51.990;5.926;2022-08-19T09:22:31;31.15;;;17.70;;
47335;SDS011;33068;51.990;5.926;2022-08-19T09:24:58;23.90;;;15.45;;
47335;SDS011;33068;51.990;5.926;2022-08-19T09:27:26;32.78;;;17.00;;
47335;SDS011;33068;51.990;5.926;2022-08-19T09:29:54;29.80;;;18.10;;
47335;SDS011;33068;51.990;5.926;2022-08-19T09:32:22;27.55;;;16.75;;
47335;SDS011;33068;51.990;5.926;2022-08-19T09:34:50;29.33;;;17.17;;
47335;SDS011;33068;51.990;5.926;2022-08-19T09:37:19;26.52;;;15.15;;
47335;SDS011;33068;51.990;5.926;2022-08-19T09:39:51;26.58;;;15.48;;
47335;SDS011;33068;51.990;5.926;2022-08-19T09:42:19;26.65;;;15.00;;
47335;SDS011;33068;51.990;5.926;2022-08-19T09:44:46;29.23;;;16.38;;
47335;SDS011;33068;51.990;5.926;2022-08-19T09:47:13;30.17;;;15.35;;
47335;SDS011;33068;51.990;5.926;2022-08-19T09:49:41;28.42;;;16.55;;
47335;SDS011;33068;51.990;5.926;2022-08-19T09:52:08;26.75;;;15.63;;
47335;SDS011;33068;51.990;5.926;2022-08-19T09:54:37;24.55;;;15.57;;
47335;SDS011;33068;51.990;5.926;2022-08-19T09:57:06;22.55;;;14.07;;
47335;SDS011;33068;51.990;5.926;2022-08-19T09:59:33;22.73;;;14.15;;
47335;SDS011;33068;51.990;5.926;2022-08-19T10:02:01;19.58;;;13.90;;
47335;SDS011;33068;51.990;5.926;2022-08-19T10:04:28;22.52;;;14.10;;
47335;SDS011;33068;51.990;5.926;2022-08-19T10:07:09;21.63;;;12.55;;
47335;SDS011;33068;51.990;5.926;2022-08-19T10:09:37;22.52;;;11.60;;
47335;SDS011;33068;51.990;5.926;2022-08-19T10:12:07;17.67;;;10.93;;
47335;SDS011;33068;51.990;5.926;2022-08-19T10:14:35;17.10;;;11.10;;
47335;SDS011;33068;51.990;5.926;2022-08-19T10:17:02;17.42;;;11.13;;
47335;SDS011;33068;51.990;5.926;2022-08-19T10:19:30;18.55;;;11.18;;
47335;SDS011;33068;51.990;5.926;2022-08-19T10:22:02;21.67;;;11.68;;
47335;SDS011;33068;51.990;5.926;2022-08-19T10:24:35;17.67;;;10.30;;
47335;SDS011;33068;51.990;5.926;2022-08-19T10:27:02;18.55;;;10.00;;
47335;SDS011;33068;51.990;5.926;2022-08-19T10:29:32;16.63;;;10.48;;
47335;SDS011;33068;51.990;5.926;2022-08-19T10:32:01;23.77;;;11.95;;
47335;SDS011;33068;51.990;5.926;2022-08-19T10:34:30;19.27;;;12.27;;
47335;SDS011;33068;51.990;5.926;2022-08-19T10:36:58;18.73;;;11.98;;
47335;SDS011;33068;51.990;5.926;2022-08-19T10:39:26;19.90;;;12.13;;
47335;SDS011;33068;51.990;5.926;2022-08-19T10:41:57;23.67;;;12.70;;
47335;SDS011;33068;51.990;5.926;2022-08-19T10:44:24;19.92;;;11.63;;
47335;SDS011;33068;51.990;5.926;2022-08-19T10:46:56;22.45;;;12.55;;
47335;SDS011;33068;51.990;5.926;2022-08-19T10:49:24;21.27;;;12.38;;
47335;SDS011;33068;51.990;5.926;2022-08-19T10:51:51;16.75;;;11.38;;
47335;SDS011;33068;51.990;5.926;2022-08-19T10:54:36;21.30;;;11.63;;
47335;SDS011;33068;51.990;5.926;2022-08-19T10:57:44;21.67;;;11.07;;
47335;SDS011;33068;51.990;5.926;2022-08-19T11:00:12;20.17;;;11.32;;
47335;SDS011;33068;51.990;5.926;2022-08-19T11:02:41;22.40;;;12.35;;
47335;SDS011;33068;51.990;5.926;2022-08-19T11:05:08;19.88;;;11.68;;
47335;SDS011;33068;51.990;5.926;2022-08-19T11:07:37;21.98;;;12.30;;
47335;SDS011;33068;51.990;5.926;2022-08-19T11:10:05;21.13;;;12.27;;
47335;SDS011;33068;51.990;5.926;2022-08-19T11:12:33;17.02;;;11.93;;
47335;SDS011;33068;51.990;5.926;2022-08-19T11:15:00;16.98;;;11.98;;
47335;SDS011;33068;51.990;5.926;2022-08-19T11:17:27;19.45;;;11.55;;
47335;SDS011;33068;51.990;5.926;2022-08-19T11:19:58;20.55;;;10.77;;
47335;SDS011;33068;51.990;5.926;2022-08-19T11:22:28;19.02;;;9.93;;
47335;SDS011;33068;51.990;5.926;2022-08-19T11:24:55;17.38;;;10.23;;
47335;SDS011;33068;51.990;5.926;2022-08-19T11:27:22;14.95;;;9.85;;
47335;SDS011;33068;51.990;5.926;2022-08-19T11:29:49;14.75;;;9.02;;
47335;SDS011;33068;51.990;5.926;2022-08-19T11:32:17;18.30;;;9.55;;
47335;SDS011;33068;51.990;5.926;2022-08-19T11:34:45;18.15;;;9.60;;
47335;SDS011;33068;51.990;5.926;2022-08-19T11:37:13;18.55;;;10.80;;
47335;SDS011;33068;51.990;5.926;2022-08-19T11:39:40;16.58;;;10.23;;
47335;SDS011;33068;51.990;5.926;2022-08-19T11:42:08;16.17;;;9.27;;
47335;SDS011;33068;51.990;5.926;2022-08-19T11:44:49;10.50;;;8.02;;
47335;SDS011;33068;51.990;5.926;2022-08-19T11:47:16;17.05;;;8.77;;
47335;SDS011;33068;51.990;5.926;2022-08-19T11:49:43;13.77;;;8.77;;
47335;SDS011;33068;51.990;5.926;2022-08-19T11:52:13;13.15;;;9.00;;
47335;SDS011;33068;51.990;5.926;2022-08-19T11:54:40;12.32;;;8.25;;
47335;SDS011;33068;51.990;5.926;2022-08-19T11:57:07;14.25;;;8.65;;
47335;SDS011;33068;51.990;5.926;2022-08-19T11:59:34;15.13;;;8.85;;
47335;SDS011;33068;51.990;5.926;2022-08-19T12:02:01;13.07;;;8.93;;
47335;SDS011;33068;51.990;5.926;2022-08-19T12:04:28;17.75;;;8.40;;
47335;SDS011;33068;51.990;5.926;2022-08-19T12:06:55;12.82;;;8.90;;
47335;SDS011;33068;51.990;5.926;2022-08-19T12:09:24;15.60;;;8.63;;
47335;SDS011;33068;51.990;5.926;2022-08-19T12:11:51;10.18;;;7.50;;
47335;SDS011;33068;51.990;5.926;2022-08-19T12:14:18;15.75;;;8.80;;
47335;SDS011;33068;51.990;5.926;2022-08-19T12:16:45;13.63;;;7.70;;
47335;SDS011;33068;51.990;5.926;2022-08-19T12:19:12;13.23;;;7.30;;
47335;SDS011;33068;51.990;5.926;2022-08-19T12:21:40;13.27;;;8.85;;
47335;SDS011;33068;51.990;5.926;2022-08-19T12:24:07;11.55;;;8.45;;
47335;SDS011;33068;51.990;5.926;2022-08-19T12:26:36;12.63;;;8.43;;
47335;SDS011;33068;51.990;5.926;2022-08-19T12:29:03;14.80;;;9.10;;
47335;SDS011;33068;51.990;5.926;2022-08-19T12:31:31;14.63;;;10.45;;
47335;SDS011;33068;51.990;5.926;2022-08-19T12:33:58;18.42;;;9.55;;
47335;SDS011;33068;51.990;5.926;2022-08-19T12:36:28;11.85;;;8.18;;
47335;SDS011;33068;51.990;5.926;2022-08-19T12:38:57;17.42;;;10.15;;
47335;SDS011;33068;51.990;5.926;2022-08-19T12:41:25;12.70;;;9.07;;
47335;SDS011;33068;51.990;5.926;2022-08-19T12:43:53;17.33;;;10.13;;
47335;SDS011;33068;51.990;5.926;2022-08-19T12:46:21;13.70;;;8.60;;
47335;SDS011;33068;51.990;5.926;2022-08-19T12:48:48;13.52;;;8.93;;
47335;SDS011;33068;51.990;5.926;2022-08-19T12:51:15;12.25;;;9.40;;
47335;SDS011;33068;51.990;5.926;2022-08-19T12:53:44;21.50;;;11.13;;
47335;SDS011;33068;51.990;5.926;2022-08-19T12:56:13;13.25;;;9.20;;
47335;SDS011;33068;51.990;5.926;2022-08-19T12:58:41;14.13;;;9.48;;
47335;SDS011;33068;51.990;5.926;2022-08-19T13:01:11;17.98;;;10.77;;
47335;SDS011;33068;51.990;5.926;2022-08-19T13:03:41;13.00;;;8.75;;
47335;SDS011;33068;51.990;5.926;2022-08-19T13:06:08;17.42;;;10.57;;
47335;SDS011;33068;51.990;5.926;2022-08-19T13:08:36;16.92;;;11.10;;
47335;SDS011;33068;51.990;5.926;2022-08-19T13:11:07;15.43;;;9.73;;
47335;SDS011;33068;51.990;5.926;2022-08-19T13:13:37;13.48;;;10.02;;
47335;SDS011;33068;51.990;5.926;2022-08-19T13:16:06;15.68;;;9.45;;
47335;SDS011;33068;51.990;5.926;2022-08-19T13:18:37;15.00;;;9.68;;
47335;SDS011;33068;51.990;5.926;2022-08-19T13:21:06;17.70;;;9.57;;
47335;SDS011;33068;51.990;5.926;2022-08-19T13:23:36;14.45;;;9.98;;
47335;SDS011;33068;51.990;5.926;2022-08-19T13:26:05;18.60;;;11.95;;
47335;SDS011;33068;51.990;5.926;2022-08-19T13:28:33;12.45;;;9.52;;
47335;SDS011;33068;51.990;5.926;2022-08-19T13:31:19;16.50;;;9.77;;
47335;SDS011;33068;51.990;5.926;2022-08-19T13:34:26;17.33;;;10.80;;
47335;SDS011;33068;51.990;5.926;2022-08-19T13:36:57;11.55;;;9.13;;
47335;SDS011;33068;51.990;5.926;2022-08-19T13:39:25;13.75;;;9.77;;
47335;SDS011;33068;51.990;5.926;2022-08-19T13:41:52;16.02;;;9.95;;
47335;SDS011;33068;51.990;5.926;2022-08-19T13:44:19;10.13;;;8.23;;
47335;SDS011;33068;51.990;5.926;2022-08-19T13:46:47;10.55;;;7.82;;
47335;SDS011;33068;51.990;5.926;2022-08-19T13:49:18;12.10;;;9.45;;
47335;SDS011;33068;51.990;5.926;2022-08-19T13:51:46;9.43;;;7.68;;
47335;SDS011;33068;51.990;5.926;2022-08-19T13:54:14;13.57;;;7.65;;
47335;SDS011;33068;51.990;5.926;2022-08-19T13:56:41;15.25;;;8.98;;
47335;SDS011;33068;51.990;5.926;2022-08-19T13:59:10;13.65;;;8.57;;
47335;SDS011;33068;51.990;5.926;2022-08-19T14:01:38;9.32;;;8.00;;
47335;SDS011;33068;51.990;5.926;2022-08-19T14:04:06;10.10;;;7.70;;
47335;SDS011;33068;51.990;5.926;2022-08-19T14:06:34;9.57;;;8.38;;
47335;SDS011;33068;51.990;5.926;2022-08-19T14:09:03;13.25;;;10.00;;
47335;SDS011;33068;51.990;5.926;2022-08-19T14:11:30;11.77;;;9.00;;
47335;SDS011;33068;51.990;5.926;2022-08-19T14:13:58;15.55;;;9.23;;
47335;SDS011;33068;51.990;5.926;2022-08-19T14:16:25;14.57;;;10.35;;
47335;SDS011;33068;51.990;5.926;2022-08-19T14:18:52;14.70;;;10.63;;
47335;SDS011;33068;51.990;5.926;2022-08-19T14:21:21;16.83;;;10.18;;
47335;SDS011;33068;51.990;5.926;2022-08-19T14:23:49;13.15;;;10.45;;
47335;SDS011;33068;51.990;5.926;2022-08-19T14:26:18;19.85;;;9.57;;
47335;SDS011;33068;51.990;5.926;2022-08-19T14:28:47;16.88;;;10.35;;
47335;SDS011;33068;51.990;5.926;2022-08-19T14:31:15;14.85;;;9.73;;
47335;SDS011;33068;51.990;5.926;2022-08-19T14:33:44;14.48;;;10.35;;
47335;SDS011;33068;51.990;5.926;2022-08-19T14:36:12;13.98;;;9.05;;
47335;SDS011;33068;51.990;5.926;2022-08-19T14:38:39;17.20;;;9.88;;
47335;SDS011;33068;51.990;5.926;2022-08-19T14:41:12;12.25;;;9.32;;
47335;SDS011;33068;51.990;5.926;2022-08-19T14:43:43;17.75;;;9.82;;
47335;SDS011;33068;51.990;5.926;2022-08-19T14:46:12;18.40;;;10.43;;
47335;SDS011;33068;51.990;5.926;2022-08-19T14:48:40;15.93;;;9.75;;